Aeroporto :
LOGIN :

Iscrizione | Disclaimer

   EN    FR    IT 

 










Sommario :    VFR   VFR Marginale   IFR   IFR Intensivo   IFR Molto Intensivo
Visibilità : 
Base nubi : 
>= 8 km
>= 3000ft
5 / 8 km
1000 / 3000 ft
1500m / 5 km
500 / 1000 ft
800 / 1500m
200 / 500 ft
< 800m
< 200 ft
Simboli :   Temporali  Nebbia  Neve Forte  Precipitazioni Forti  Vento > 20 kt
SIGMETs :   Varie  Temporali  Ghiacco  Turbolenza  Onda orograficha  Ceneri Vulcaniche






- Altitudine del aeroporto : 2077 ft
- Codice IATA : FMM


EDJA - Memmingen

ULTIMO METAR :
  • 231950Z 24028G40KT 9999 FEW059 13/05 Q1020

METARs OBSOLETI :
  • 231920Z 24026G37KT 9999 BKN048 13/05 Q1020
  • 231850Z 25026G38KT 9999 BKN050 14/04 Q1020
  • 231820Z 24028G45KT CAVOK 14/04 Q1020
  • 231750Z 24029G39KT CAVOK 14/04 Q1019
  • 231720Z 23027G41KT CAVOK 14/05 Q1019

TAF TAF EDJA
Valido dal 23 a 18 ore il 24 a 03 ore UTC


231700Z 2318/2403 23025G35KT CAVOK
TEMPO 2323/2403 3500 RA BKN008
BECMG 2400/2403 28015G25KT



MetMap, La meteo Aeronautica in un colpo d'occhio ! - Copyright ORBIFLY Dicembre 2007 - Disclaimer

ORBIFLY MET'MAP TEAM :

Programmazione e sviluppo : Alexandra Zaïnal
Concezione : Baudouin d'Aumeries
Aiuto per la programmazione : Marc-Olivier Méhu
Supporto tecnico e logistico : Manuel Goepfert
Aiuto per la traduzione : Arnaldo La Scala

Contatto : metmap@orbifly.com




FONTI E CREDITI :

   NOAA